Time;durP1;ratioP1;P1;durP2;ratioP2;P2;SDS_P1;SDS_P2;PMS_P1;PMS_P2;Temp;Humidity;BMP_temperature;BMP_pressure;BME280_temperature;BME280_humidity;BME280_pressure;Samples;Min_cycle;Max_cycle;Signal;HPM_P1;HPM_P2
2022/12/04 00:00:14;;;;;;;13.40;7.57;;;0.70;99.90;;;;;;5035389;28;20684;-81
2022/12/04 00:02:40;;;;;;;15.13;8.17;;;0.70;99.90;;;;;;5018125;28;20209;-81
2022/12/04 00:05:08;;;;;;;14.97;7.87;;;0.70;99.90;;;;;;5018424;28;20548;-81
2022/12/04 00:07:33;;;;;;;17.80;8.37;;;0.70;99.90;;;;;;5035978;28;20178;-80
2022/12/04 00:09:59;;;;;;;15.17;8.80;;;0.70;99.90;;;;;;5017991;28;20544;-80
2022/12/04 00:12:25;;;;;;;16.40;9.33;;;0.60;99.90;;;;;;5017916;28;20182;-81
2022/12/04 00:14:51;;;;;;;15.70;8.53;;;0.60;99.90;;;;;;5018235;28;20181;-80
2022/12/04 00:17:16;;;;;;;16.77;9.07;;;0.60;99.90;;;;;;5018160;28;20170;-80
2022/12/04 00:19:42;;;;;;;15.13;9.17;;;0.60;99.90;;;;;;5017867;28;20335;-80
2022/12/04 00:22:08;;;;;;;15.40;8.53;;;0.60;99.90;;;;;;5017930;28;20171;-81
2022/12/04 00:24:34;;;;;;;16.10;9.30;;;0.60;99.90;;;;;;5017706;28;20206;-80
2022/12/04 00:26:59;;;;;;;14.20;8.20;;;0.60;99.90;;;;;;5017566;28;20271;-81
2022/12/04 00:29:25;;;;;;;16.33;8.73;;;0.60;99.90;;;;;;5017926;28;20239;-80
2022/12/04 00:31:50;;;;;;;15.63;9.00;;;0.50;99.90;;;;;;5017978;28;20177;-80
2022/12/04 00:34:16;;;;;;;15.67;9.67;;;0.50;99.90;;;;;;5036020;28;20193;-81
2022/12/04 00:36:42;;;;;;;14.73;8.63;;;0.60;99.90;;;;;;5035813;28;20177;-80
2022/12/04 00:39:08;;;;;;;16.17;8.97;;;0.60;99.90;;;;;;5035748;28;20201;-80
2022/12/04 00:41:33;;;;;;;16.00;9.10;;;0.60;99.90;;;;;;5017614;28;20216;-80
2022/12/04 00:44:00;;;;;;;14.40;8.43;;;0.60;99.90;;;;;;5035780;28;20178;-80
2022/12/04 00:46:26;;;;;;;13.80;8.03;;;0.60;99.90;;;;;;5035921;28;20179;-80
2022/12/04 00:48:52;;;;;;;18.40;9.40;;;0.60;99.90;;;;;;5093652;22;20652;-80
2022/12/04 00:51:21;;;;;;;17.00;9.10;;;0.60;99.90;;;;;;5036584;28;20591;-80
2022/12/04 00:53:47;;;;;;;14.53;8.73;;;0.60;99.90;;;;;;5035444;28;20520;-80
2022/12/04 00:56:18;;;;;;;15.50;9.13;;;0.60;99.90;;;;;;5034463;28;20174;-80
2022/12/04 00:58:44;;;;;;;15.63;9.00;;;0.50;99.90;;;;;;5036268;28;20215;-81
2022/12/04 01:01:13;;;;;;;15.27;9.20;;;0.60;99.90;;;;;;5034628;28;20568;-80
2022/12/04 01:03:39;;;;;;;17.33;9.73;;;0.50;99.90;;;;;;5034247;28;20641;-80
2022/12/04 01:06:05;;;;;;;14.40;8.97;;;0.50;99.90;;;;;;5034765;28;20181;-81
2022/12/04 01:08:32;;;;;;;14.70;9.07;;;0.50;99.90;;;;;;5034949;28;20232;-80
2022/12/04 01:10:58;;;;;;;15.67;9.40;;;0.50;99.90;;;;;;5033864;28;20206;-80
2022/12/04 01:13:25;;;;;;;15.97;9.53;;;0.50;99.90;;;;;;5035740;28;20185;-80
2022/12/04 01:15:50;;;;;;;15.90;9.47;;;0.60;99.90;;;;;;5035042;28;20171;-80
2022/12/04 01:18:16;;;;;;;15.40;8.93;;;0.50;99.90;;;;;;5035498;28;20220;-80
2022/12/04 01:20:50;;;;;;;16.37;8.73;;;0.50;99.90;;;;;;5035833;28;20224;-80
2022/12/04 01:23:17;;;;;;;16.73;8.80;;;0.50;99.90;;;;;;5035588;28;20211;-80
2022/12/04 01:25:57;;;;;;;14.03;8.83;;;0.60;99.90;;;;;;5033823;28;20725;-80
2022/12/04 01:28:23;;;;;;;17.40;9.47;;;0.60;99.90;;;;;;5034253;28;20184;-80
2022/12/04 01:30:59;;;;;;;13.80;8.97;;;0.50;99.90;;;;;;5035207;28;20202;-80
2022/12/04 01:33:25;;;;;;;15.00;8.47;;;0.50;99.90;;;;;;5034909;28;20182;-80
2022/12/04 01:35:53;;;;;;;14.10;8.83;;;0.50;99.90;;;;;;5033112;28;20189;-80
2022/12/04 01:38:18;;;;;;;15.93;9.13;;;0.50;99.90;;;;;;5032801;28;20202;-80
2022/12/04 01:40:44;;;;;;;15.03;9.23;;;0.50;99.90;;;;;;5032924;28;20714;-80
2022/12/04 01:43:12;;;;;;;15.00;8.57;;;0.60;99.90;;;;;;5033170;28;20181;-80
2022/12/04 01:45:59;;;;;;;18.17;9.17;;;0.50;99.90;;;;;;5032832;28;20171;-81
2022/12/04 01:48:32;;;;;;;16.33;8.77;;;0.50;99.90;;;;;;5034213;28;20523;-80
2022/12/04 01:51:17;;;;;;;14.23;8.30;;;0.50;99.90;;;;;;5033077;28;20182;-80
2022/12/04 01:53:47;;;;;;;15.67;9.07;;;0.50;99.90;;;;;;5034017;28;20167;-80
2022/12/04 01:56:15;;;;;;;15.30;8.53;;;0.50;99.90;;;;;;5034005;28;20356;-80
2022/12/04 01:58:45;;;;;;;16.23;9.20;;;0.50;99.90;;;;;;5032619;28;20214;-80
2022/12/04 02:01:10;;;;;;;14.93;8.83;;;0.50;99.90;;;;;;5032978;28;20178;-80
2022/12/04 02:03:37;;;;;;;15.07;8.93;;;0.60;99.90;;;;;;5033703;28;20167;-81
2022/12/04 02:06:03;;;;;;;17.83;9.80;;;0.60;99.90;;;;;;5033607;28;20177;-80
2022/12/04 02:08:30;;;;;;;16.93;8.97;;;0.60;99.90;;;;;;5032480;28;20176;-80
2022/12/04 02:11:17;;;;;;;13.30;7.30;;;0.60;99.90;;;;;;5032474;28;20185;-80
2022/12/04 02:14:07;;;;;;;13.93;7.80;;;0.60;99.90;;;;;;5032114;28;20170;-81
2022/12/04 02:17:17;;;;;;;12.77;7.90;;;0.60;99.90;;;;;;5033631;28;20173;-80
2022/12/04 02:20:00;;;;;;;12.17;8.07;;;0.60;99.90;;;;;;5027673;28;20229;-81
2022/12/04 02:22:35;;;;;;;14.53;7.73;;;0.50;99.90;;;;;;5032736;28;20167;-80
2022/12/04 02:25:39;;;;;;;12.07;7.67;;;0.50;99.90;;;;;;5032044;28;20171;-80
2022/12/04 02:28:27;;;;;;;12.90;8.07;;;0.60;99.90;;;;;;5033667;28;20170;-82
2022/12/04 02:30:58;;;;;;;13.33;8.03;;;0.60;99.90;;;;;;5033445;28;20213;-80
2022/12/04 02:33:40;;;;;;;14.03;8.47;;;0.50;99.90;;;;;;5031789;28;20649;-80
2022/12/04 02:36:17;;;;;;;12.93;8.27;;;0.50;99.90;;;;;;5032146;28;20171;-80
2022/12/04 02:38:57;;;;;;;14.53;8.10;;;0.60;99.90;;;;;;5033171;28;20259;-80
2022/12/04 02:41:42;;;;;;;15.93;8.07;;;0.50;99.90;;;;;;5033438;28;20172;-80
2022/12/04 02:44:14;;;;;;;13.57;7.70;;;0.60;99.90;;;;;;5032150;28;20711;-80
2022/12/04 02:46:43;;;;;;;12.63;7.80;;;0.60;99.90;;;;;;5033265;28;20177;-80
2022/12/04 02:49:27;;;;;;;13.80;7.90;;;0.60;99.90;;;;;;5033385;28;20214;-80
2022/12/04 02:51:56;;;;;;;13.73;8.17;;;0.70;99.90;;;;;;5033585;28;20182;-81
2022/12/04 02:54:41;;;;;;;15.23;9.10;;;0.70;99.90;;;;;;5031747;28;20171;-80
2022/12/04 02:57:12;;;;;;;12.87;7.90;;;0.60;99.90;;;;;;5032134;28;20231;-80
2022/12/04 02:59:41;;;;;;;15.17;8.33;;;0.60;99.90;;;;;;5031888;28;20711;-80
2022/12/04 03:02:17;;;;;;;15.20;8.23;;;0.70;99.90;;;;;;5031717;28;20545;-80
2022/12/04 03:04:49;;;;;;;12.77;7.97;;;0.60;99.90;;;;;;5032279;28;20170;-81
2022/12/04 03:07:22;;;;;;;19.00;8.53;;;0.60;99.90;;;;;;5031984;28;20170;-80
2022/12/04 03:09:53;;;;;;;13.63;8.27;;;0.60;99.90;;;;;;5033589;28;20190;-81
2022/12/04 03:12:41;;;;;;;14.50;8.63;;;0.70;99.90;;;;;;5032629;28;20560;-80
2022/12/04 03:15:14;;;;;;;13.93;7.97;;;0.70;99.90;;;;;;5033344;28;20563;-81
2022/12/04 03:18:22;;;;;;;14.03;8.03;;;0.80;99.90;;;;;;5033495;28;20542;-80
2022/12/04 03:20:53;;;;;;;12.90;8.07;;;0.80;99.90;;;;;;5027273;28;20276;-80
2022/12/04 03:23:36;;;;;;;13.33;7.77;;;0.80;99.90;;;;;;5031845;28;20217;-82
2022/12/04 03:26:23;;;;;;;14.70;7.80;;;0.80;99.90;;;;;;5032116;28;20170;-80
2022/12/04 03:29:27;;;;;;;13.00;7.63;;;0.90;99.90;;;;;;5031887;28;20199;-80
2022/12/04 03:32:10;;;;;;;13.43;7.73;;;0.80;99.90;;;;;;5032187;28;20174;-80
2022/12/04 03:34:48;;;;;;;14.43;7.33;;;0.80;99.90;;;;;;5033663;28;20178;-80
2022/12/04 03:37:18;;;;;;;12.93;7.23;;;0.80;99.90;;;;;;5035537;28;20181;-80
2022/12/04 03:40:02;;;;;;;12.00;7.07;;;0.80;99.90;;;;;;5037136;28;20206;-81
2022/12/04 03:42:55;;;;;;;11.20;6.93;;;0.80;99.90;;;;;;5036745;28;20194;-80
2022/12/04 03:45:25;;;;;;;12.10;7.47;;;0.80;99.90;;;;;;5035577;28;20177;-80
2022/12/04 03:47:58;;;;;;;12.73;7.43;;;0.80;99.90;;;;;;5035435;28;20167;-80
2022/12/04 03:50:41;;;;;;;11.83;7.53;;;0.80;99.90;;;;;;5036564;28;20240;-80
2022/12/04 03:53:31;;;;;;;14.87;8.40;;;0.80;99.90;;;;;;5036496;28;20174;-80
2022/12/04 03:56:11;;;;;;;13.87;7.90;;;0.80;99.90;;;;;;5036974;28;20175;-80
2022/12/04 03:58:42;;;;;;;13.73;8.20;;;0.70;99.90;;;;;;5036836;28;20206;-82
2022/12/04 04:01:10;;;;;;;15.57;7.83;;;0.70;99.90;;;;;;5035659;28;20177;-80
2022/12/04 04:03:39;;;;;;;13.27;8.10;;;0.70;99.90;;;;;;5035330;28;20178;-80
2022/12/04 04:06:11;;;;;;;13.97;8.10;;;0.70;99.90;;;;;;5035458;28;20305;-81
2022/12/04 04:08:41;;;;;;;13.30;7.77;;;0.80;99.90;;;;;;5036452;28;20194;-80
2022/12/04 04:11:10;;;;;;;12.90;7.87;;;0.80;99.90;;;;;;5035610;28;20170;-80
2022/12/04 04:24:58;;;;;;;15.10;8.53;;;0.80;99.90;;;;;;5036975;28;20675;-81
2022/12/04 04:27:23;;;;;;;12.53;8.07;;;0.80;99.90;;;;;;5036299;28;20268;-81
2022/12/04 04:29:50;;;;;;;13.83;7.70;;;0.90;99.90;;;;;;5035711;28;20750;-80
2022/12/04 04:32:28;;;;;;;14.20;8.27;;;0.90;99.90;;;;;;5034287;28;20175;-80
2022/12/04 04:35:13;;;;;;;16.10;8.23;;;0.90;99.90;;;;;;5034076;28;20175;-80
2022/12/04 04:37:47;;;;;;;15.30;8.37;;;0.90;99.90;;;;;;5034461;28;20170;-81
2022/12/04 04:40:17;;;;;;;13.77;7.77;;;0.80;99.90;;;;;;5035353;28;20205;-80
2022/12/04 04:42:55;;;;;;;14.83;7.70;;;0.80;99.90;;;;;;5033840;28;20183;-80
2022/12/04 04:45:50;;;;;;;13.93;8.27;;;0.80;99.90;;;;;;5033193;28;20170;-80
2022/12/04 04:48:34;;;;;;;14.00;8.30;;;0.80;99.90;;;;;;5031943;28;20183;-79
2022/12/04 04:51:02;;;;;;;13.67;8.07;;;0.80;99.90;;;;;;5035069;28;20292;-80
2022/12/04 04:53:49;;;;;;;14.63;8.43;;;0.80;99.90;;;;;;5033673;28;20194;-81
2022/12/04 04:56:16;;;;;;;14.73;8.50;;;0.70;99.90;;;;;;5033925;28;20193;-80
2022/12/04 04:58:42;;;;;;;12.87;7.67;;;0.80;99.90;;;;;;5033996;28;20238;-81
2022/12/04 05:01:14;;;;;;;14.07;8.63;;;0.80;99.90;;;;;;5034003;28;20228;-80
2022/12/04 05:03:41;;;;;;;16.17;8.07;;;0.80;99.90;;;;;;5033704;28;20171;-80
2022/12/04 05:06:07;;;;;;;16.70;9.00;;;0.70;99.90;;;;;;5034834;28;20637;-80
2022/12/04 05:08:33;;;;;;;14.13;8.53;;;0.60;99.90;;;;;;5034610;28;20550;-80
2022/12/04 05:10:59;;;;;;;15.17;8.23;;;0.70;99.90;;;;;;5034889;28;20201;-80
2022/12/04 05:13:27;;;;;;;14.77;8.50;;;0.60;99.90;;;;;;5033476;28;20187;-80
2022/12/04 05:16:01;;;;;;;13.47;7.70;;;0.70;99.90;;;;;;5034458;28;20232;-80
2022/12/04 05:18:27;;;;;;;15.23;8.40;;;0.70;99.90;;;;;;5034416;28;20198;-80
2022/12/04 05:20:53;;;;;;;15.47;8.80;;;0.80;99.90;;;;;;5034355;28;20174;-80
2022/12/04 05:23:19;;;;;;;13.87;7.93;;;0.70;99.90;;;;;;5034413;28;20228;-80
2022/12/04 05:25:44;;;;;;;16.40;8.63;;;0.70;99.90;;;;;;5033275;28;20174;-80
2022/12/04 05:28:10;;;;;;;14.23;8.17;;;0.70;99.90;;;;;;5033302;28;20185;-82
2022/12/04 05:30:36;;;;;;;16.03;8.50;;;0.70;99.90;;;;;;5034395;28;20197;-80
2022/12/04 05:33:01;;;;;;;14.67;8.03;;;0.70;99.90;;;;;;5032594;28;20174;-80
2022/12/04 05:35:27;;;;;;;15.07;8.67;;;0.70;99.90;;;;;;5034220;28;20178;-80
2022/12/04 05:37:52;;;;;;;16.67;9.27;;;0.60;99.90;;;;;;5033048;28;20186;-80
2022/12/04 05:40:18;;;;;;;15.70;8.50;;;0.60;99.90;;;;;;5032521;28;20297;-80
2022/12/04 05:42:43;;;;;;;15.97;8.77;;;0.70;99.90;;;;;;5032869;28;20174;-80
2022/12/04 05:45:09;;;;;;;17.17;8.87;;;0.70;99.90;;;;;;5034186;28;20171;-80
2022/12/04 05:47:43;;;;;;;14.77;8.57;;;0.60;99.90;;;;;;5034081;28;20170;-80
2022/12/04 05:50:11;;;;;;;15.03;8.37;;;0.60;99.90;;;;;;5033881;28;20212;-80
2022/12/04 05:52:37;;;;;;;14.30;8.40;;;0.50;99.90;;;;;;5032664;28;20181;-80
2022/12/04 05:55:03;;;;;;;15.17;7.93;;;0.50;99.90;;;;;;5032626;28;20298;-80
2022/12/04 05:57:28;;;;;;;14.57;8.53;;;0.50;99.90;;;;;;5033719;28;20209;-80
2022/12/04 05:59:54;;;;;;;16.17;8.27;;;0.50;99.90;;;;;;5034064;28;20202;-80
2022/12/04 06:02:19;;;;;;;16.10;9.00;;;0.50;99.90;;;;;;5032504;28;20208;-81
2022/12/04 06:04:45;;;;;;;17.13;8.67;;;0.50;99.90;;;;;;5033834;28;20223;-80
2022/12/04 06:07:11;;;;;;;15.53;8.43;;;0.50;99.90;;;;;;5032657;28;20182;-80
2022/12/04 06:09:37;;;;;;;15.77;8.80;;;0.50;99.90;;;;;;5033458;28;20197;-84
2022/12/04 06:12:03;;;;;;;17.37;9.43;;;0.50;99.90;;;;;;5032527;28;20178;-84
2022/12/04 06:14:29;;;;;;;18.27;8.77;;;0.50;99.90;;;;;;5033224;28;20638;-84
2022/12/04 06:16:54;;;;;;;17.80;9.17;;;0.50;99.90;;;;;;5032602;28;20260;-84
2022/12/04 06:19:21;;;;;;;16.07;9.27;;;0.60;99.90;;;;;;5033424;28;20206;-84
2022/12/04 06:21:49;;;;;;;16.13;9.00;;;0.60;99.90;;;;;;5033422;28;20192;-84
2022/12/04 06:24:21;;;;;;;15.03;9.00;;;0.50;99.90;;;;;;5033353;28;20177;-83
2022/12/04 06:26:47;;;;;;;15.97;8.73;;;0.50;99.90;;;;;;5031894;28;20522;-84
2022/12/04 06:29:13;;;;;;;17.53;10.13;;;0.50;99.90;;;;;;5033601;28;20197;-83
2022/12/04 06:31:39;;;;;;;15.37;8.50;;;0.60;99.90;;;;;;5031903;28;20188;-83
2022/12/04 06:34:06;;;;;;;17.70;9.83;;;0.60;99.90;;;;;;5033416;28;20174;-83
2022/12/04 06:36:32;;;;;;;17.47;9.73;;;0.60;99.90;;;;;;5032083;28;20316;-84
2022/12/04 06:38:58;;;;;;;16.67;9.03;;;0.60;99.90;;;;;;5032898;28;20213;-83
2022/12/04 06:41:25;;;;;;;15.93;8.10;;;0.60;99.90;;;;;;5032078;28;20261;-82
2022/12/04 06:43:51;;;;;;;18.53;10.13;;;0.80;99.90;;;;;;5035377;28;20204;-79
2022/12/04 06:46:22;;;;;;;17.23;9.63;;;1.20;99.90;;;;;;5034375;28;20362;-81
2022/12/04 06:51:16;;;;;;;18.20;9.47;;;1.70;99.90;;;;;;5091541;22;20245;-82
2022/12/04 06:53:42;;;;;;;16.00;9.13;;;1.80;99.90;;;;;;5044103;28;20174;-82
2022/12/04 06:56:11;;;;;;;19.17;10.00;;;1.70;99.90;;;;;;5036764;28;20181;-81
2022/12/04 06:58:37;;;;;;;16.47;9.30;;;1.30;99.90;;;;;;5063104;28;20218;-82
2022/12/04 07:01:12;;;;;;;17.63;9.57;;;1.10;99.90;;;;;;5066961;28;20196;-81
2022/12/04 07:03:38;;;;;;;20.57;10.60;;;1.00;99.90;;;;;;5050829;28;20169;-82
2022/12/04 07:06:12;;;;;;;18.87;10.43;;;1.00;99.90;;;;;;5050709;28;20527;-83
2022/12/04 07:08:37;;;;;;;18.13;10.10;;;0.90;99.90;;;;;;5051936;28;20202;-83
2022/12/04 07:11:03;;;;;;;20.37;10.23;;;0.80;99.90;;;;;;5048032;28;20683;-82
2022/12/04 07:13:28;;;;;;;16.83;9.47;;;0.80;99.90;;;;;;5037818;28;20179;-84
2022/12/04 07:15:54;;;;;;;17.73;10.10;;;0.80;99.90;;;;;;5056232;28;20173;-84
2022/12/04 07:18:19;;;;;;;17.50;9.90;;;0.80;99.90;;;;;;5055708;28;20201;-85
2022/12/04 07:20:45;;;;;;;20.13;9.97;;;0.90;99.90;;;;;;5056523;28;20339;-84
2022/12/04 07:23:10;;;;;;;22.20;10.90;;;0.90;99.90;;;;;;5036133;28;20177;-81
2022/12/04 07:25:40;;;;;;;20.63;10.60;;;0.90;99.90;;;;;;5055499;28;20617;-81
2022/12/04 07:28:06;;;;;;;18.00;9.13;;;0.90;99.90;;;;;;5055653;28;20546;-82
2022/12/04 07:30:31;;;;;;;18.93;10.20;;;0.90;99.90;;;;;;5041760;28;20215;-86
2022/12/04 07:32:57;;;;;;;124.60;37.63;;;0.80;99.90;;;;;;5043738;28;20231;-85
2022/12/04 07:35:22;;;;;;;48.93;19.30;;;1.40;99.90;;;;;;5033449;28;20203;-85
2022/12/04 07:37:48;;;;;;;17.50;11.93;;;4.90;99.90;;;;;;5032675;28;20185;-84
2022/12/04 07:40:13;;;;;;;15.03;8.87;;;4.40;99.90;;;;;;5032736;28;20682;-84
2022/12/04 07:42:39;;;;;;;17.40;10.27;;;3.70;99.90;;;;;;5038873;28;20658;-84
2022/12/04 07:45:05;;;;;;;18.33;9.60;;;2.70;99.90;;;;;;5047873;28;20181;-84
2022/12/04 07:47:30;;;;;;;17.37;10.17;;;2.10;99.90;;;;;;5036201;28;20187;-84
2022/12/04 07:49:56;;;;;;;17.70;9.87;;;1.80;99.90;;;;;;5036229;28;20216;-84
2022/12/04 07:52:22;;;;;;;18.77;10.03;;;1.40;99.90;;;;;;5042477;28;20191;-85
2022/12/04 07:54:47;;;;;;;19.03;10.97;;;1.30;99.90;;;;;;5055715;28;20689;-84
2022/12/04 07:57:13;;;;;;;16.37;9.20;;;1.20;99.90;;;;;;5054593;28;20555;-84
2022/12/04 07:59:38;;;;;;;18.20;12.43;;;1.20;99.90;;;;;;5054475;28;20214;-84
2022/12/04 08:02:05;;;;;;;18.03;9.50;;;1.10;99.90;;;;;;5057956;28;20179;-84
2022/12/04 08:04:31;;;;;;;15.57;8.40;;;1.00;99.90;;;;;;5056349;28;20258;-84
2022/12/04 08:06:57;;;;;;;15.77;9.63;;;1.10;99.90;;;;;;5057983;28;20207;-84
2022/12/04 08:09:22;;;;;;;16.50;8.83;;;1.10;99.90;;;;;;5058605;28;20205;-84
2022/12/04 08:11:48;;;;;;;16.83;9.00;;;1.20;99.90;;;;;;5059350;28;20254;-84
2022/12/04 08:14:13;;;;;;;16.73;9.97;;;1.20;99.90;;;;;;5058427;28;20186;-82
2022/12/04 08:16:39;;;;;;;16.33;10.30;;;1.20;99.90;;;;;;5056696;28;20178;-84
2022/12/04 08:19:05;;;;;;;15.57;8.70;;;1.10;99.90;;;;;;5058507;28;20254;-84
2022/12/04 08:21:31;;;;;;;16.07;8.93;;;1.10;99.90;;;;;;5059440;28;20303;-84
2022/12/04 08:23:58;;;;;;;18.03;9.93;;;1.20;99.90;;;;;;5059135;28;20173;-84
2022/12/04 08:26:27;;;;;;;15.33;9.37;;;1.20;99.90;;;;;;5060703;28;20209;-84
2022/12/04 08:28:54;;;;;;;16.90;9.67;;;1.20;99.90;;;;;;5061335;28;20194;-84
2022/12/04 08:31:25;;;;;;;18.43;11.87;;;1.30;99.90;;;;;;5057587;28;20188;-84
2022/12/04 08:33:53;;;;;;;48.77;27.30;;;1.40;99.90;;;;;;5056386;28;20235;-84
2022/12/04 08:36:20;;;;;;;20.63;12.20;;;1.50;99.90;;;;;;5056065;28;20179;-84
2022/12/04 08:38:47;;;;;;;21.87;14.07;;;1.50;99.90;;;;;;5057563;28;20247;-84
2022/12/04 08:41:15;;;;;;;21.27;13.47;;;1.60;99.90;;;;;;5055708;28;20190;-84
2022/12/04 08:43:42;;;;;;;14.80;8.60;;;1.60;99.90;;;;;;5054974;28;20171;-84
2022/12/04 08:46:13;;;;;;;20.57;12.10;;;1.70;99.90;;;;;;5054876;28;20174;-84
2022/12/04 08:48:39;;;;;;;16.93;9.10;;;1.70;99.90;;;;;;5055838;28;20170;-84
2022/12/04 08:51:07;;;;;;;13.67;8.07;;;1.80;99.90;;;;;;5054496;28;20581;-83
2022/12/04 08:53:33;;;;;;;15.37;9.03;;;1.80;99.90;;;;;;5037065;28;20248;-84
2022/12/04 08:56:03;;;;;;;15.47;8.47;;;1.90;99.90;;;;;;5037283;28;20179;-84
2022/12/04 08:58:29;;;;;;;17.07;9.20;;;1.80;99.90;;;;;;5036796;28;20181;-84
2022/12/04 09:00:55;;;;;;;14.60;8.30;;;1.80;99.90;;;;;;5037333;28;20328;-84
2022/12/04 09:03:21;;;;;;;14.23;8.83;;;1.80;99.90;;;;;;5054921;28;20199;-84
2022/12/04 09:05:46;;;;;;;13.63;8.57;;;1.70;99.90;;;;;;5037028;28;20622;-84
2022/12/04 09:08:14;;;;;;;15.67;9.13;;;1.70;99.90;;;;;;5054671;28;20198;-83
2022/12/04 09:10:40;;;;;;;16.10;8.33;;;1.80;99.90;;;;;;5036753;28;20249;-83
2022/12/04 09:13:06;;;;;;;14.00;8.67;;;1.80;99.90;;;;;;5036392;28;20191;-83
2022/12/04 09:15:32;;;;;;;14.53;9.07;;;1.80;99.90;;;;;;5036590;28;20664;-83
2022/12/04 09:17:58;;;;;;;13.27;7.80;;;1.70;99.90;;;;;;5036400;28;20189;-83
2022/12/04 09:20:23;;;;;;;16.67;8.03;;;1.70;99.90;;;;;;5036319;28;20602;-83
2022/12/04 09:22:49;;;;;;;14.30;8.43;;;1.70;99.90;;;;;;5036309;28;20181;-83
2022/12/04 09:25:15;;;;;;;14.27;8.10;;;1.80;99.90;;;;;;5036703;28;20220;-84
2022/12/04 09:27:41;;;;;;;15.23;9.80;;;1.80;99.90;;;;;;5036399;28;20179;-83
2022/12/04 09:30:09;;;;;;;13.23;8.47;;;1.90;99.90;;;;;;5054380;28;20206;-83
2022/12/04 09:32:34;;;;;;;14.17;8.70;;;1.90;99.90;;;;;;5035366;28;20179;-83
2022/12/04 09:35:00;;;;;;;14.53;8.17;;;2.00;99.90;;;;;;5036170;28;20714;-84
2022/12/04 09:37:25;;;;;;;15.17;8.67;;;2.00;99.90;;;;;;5036142;28;20186;-83
2022/12/04 09:39:51;;;;;;;14.40;8.13;;;1.90;99.90;;;;;;5035886;28;20289;-83
2022/12/04 09:42:24;;;;;;;15.80;9.13;;;2.10;99.90;;;;;;5035467;28;20204;-83
2022/12/04 09:45:06;;;;;;;15.13;8.43;;;2.20;99.90;;;;;;5053581;28;20624;-83
2022/12/04 09:47:35;;;;;;;13.20;8.10;;;2.30;99.90;;;;;;5035487;28;20182;-83
2022/12/04 09:50:13;;;;;;;13.13;7.83;;;2.30;99.90;;;;;;5036352;28;20219;-83
2022/12/04 09:52:48;;;;;;;13.53;8.00;;;2.30;99.90;;;;;;5053051;28;20237;-83
2022/12/04 09:55:42;;;;;;;15.80;9.30;;;2.30;99.90;;;;;;5035605;28;20667;-83
2022/12/04 09:58:19;;;;;;;15.97;8.37;;;2.20;99.90;;;;;;5034016;28;20195;-83
2022/12/04 10:00:48;;;;;;;13.77;7.90;;;2.10;99.90;;;;;;5053251;28;20209;-83
2022/12/04 10:03:17;;;;;;;15.00;7.80;;;2.10;99.90;;;;;;5035417;28;20324;-83
2022/12/04 10:05:58;;;;;;;14.10;7.80;;;1.90;99.90;;;;;;5035540;28;20176;-83
2022/12/04 10:08:31;;;;;;;13.30;7.73;;;2.00;99.90;;;;;;5035348;28;20182;-83
2022/12/04 10:11:04;;;;;;;12.87;7.43;;;1.90;99.90;;;;;;5035384;28;20197;-83
2022/12/04 10:13:43;;;;;;;14.10;7.93;;;1.90;99.90;;;;;;5035088;28;20196;-83
2022/12/04 10:16:55;;;;;;;13.17;8.03;;;1.90;99.90;;;;;;5035201;28;20266;-83
2022/12/04 10:19:30;;;;;;;11.27;6.63;;;1.80;99.90;;;;;;5053418;28;20743;-83
2022/12/04 10:22:19;;;;;;;13.50;7.60;;;1.90;99.90;;;;;;5053271;28;20227;-83
2022/12/04 10:24:50;;;;;;;12.33;7.77;;;1.90;99.90;;;;;;5052996;28;20167;-83
2022/12/04 10:27:21;;;;;;;13.50;7.83;;;2.20;99.90;;;;;;5052495;28;20665;-83
2022/12/04 10:29:51;;;;;;;14.60;8.23;;;2.30;99.90;;;;;;5052831;28;20203;-83
2022/12/04 10:32:24;;;;;;;12.50;8.57;;;2.30;99.90;;;;;;5045525;28;20179;-82
2022/12/04 10:34:54;;;;;;;17.53;11.03;;;2.20;99.90;;;;;;5035402;28;20186;-83
2022/12/04 10:37:22;;;;;;;15.50;9.20;;;2.20;99.90;;;;;;5035166;28;20219;-82
2022/12/04 10:39:54;;;;;;;14.07;8.00;;;2.20;99.90;;;;;;5053306;28;20260;-83
2022/12/04 10:42:29;;;;;;;18.43;12.00;;;2.20;99.90;;;;;;5053301;28;20182;-83
2022/12/04 10:44:55;;;;;;;14.77;8.60;;;2.40;99.90;;;;;;5052991;28;20230;-82
2022/12/04 10:47:23;;;;;;;15.33;10.07;;;2.40;99.90;;;;;;5035883;28;20264;-80
2022/12/04 10:49:55;;;;;;;16.80;11.03;;;2.40;99.90;;;;;;5048018;28;20692;-83
2022/12/04 10:52:21;;;;;;;16.33;8.63;;;2.40;99.90;;;;;;5054619;28;20178;-82
2022/12/04 10:54:59;;;;;;;16.50;10.37;;;2.30;99.90;;;;;;5035322;28;20206;-83
2022/12/04 10:57:39;;;;;;;16.27;10.60;;;2.30;99.90;;;;;;5054492;28;20172;-83
2022/12/04 11:00:26;;;;;;;16.40;11.33;;;2.40;99.90;;;;;;5037513;28;20210;-83
2022/12/04 11:02:54;;;;;;;23.53;16.07;;;2.40;99.90;;;;;;5055326;28;20170;-83
2022/12/04 11:05:27;;;;;;;14.60;7.87;;;2.50;99.90;;;;;;5056402;28;20172;-83
2022/12/04 11:07:55;;;;;;;14.50;8.93;;;2.50;99.90;;;;;;5055748;28;20729;-83
2022/12/04 11:10:31;;;;;;;15.00;9.20;;;2.60;99.90;;;;;;5039019;28;20575;-83
2022/12/04 11:13:03;;;;;;;13.93;8.00;;;2.60;99.90;;;;;;5038599;28;20190;-83
2022/12/04 11:15:29;;;;;;;12.63;7.50;;;2.80;99.90;;;;;;5038903;28;20232;-83
2022/12/04 11:18:14;;;;;;;12.37;8.07;;;3.00;99.90;;;;;;5038777;28;20174;-83
2022/12/04 11:20:49;;;;;;;14.20;8.57;;;3.10;99.90;;;;;;5039120;28;20241;-83
2022/12/04 11:23:15;;;;;;;11.87;7.20;;;3.20;99.90;;;;;;5040710;28;20171;-83
2022/12/04 11:25:47;;;;;;;12.50;7.50;;;3.40;99.90;;;;;;5043142;28;20173;-83
2022/12/04 11:28:20;;;;;;;13.43;8.30;;;3.50;99.90;;;;;;5043828;28;20229;-83
2022/12/04 11:30:54;;;;;;;14.83;9.60;;;3.70;99.90;;;;;;5046656;28;20200;-84
2022/12/04 11:33:43;;;;;;;15.93;9.50;;;3.70;99.90;;;;;;5046867;28;20211;-83
2022/12/04 11:36:23;;;;;;;11.07;7.50;;;3.80;99.90;;;;;;5046802;28;20180;-84
2022/12/04 11:38:51;;;;;;;14.27;9.53;;;3.70;99.90;;;;;;5047059;28;20226;-84
2022/12/04 11:41:29;;;;;;;17.47;11.23;;;3.80;99.90;;;;;;5047023;28;20180;-84
2022/12/04 11:43:55;;;;;;;15.27;9.10;;;4.40;99.90;;;;;;5045103;28;20176;-84
2022/12/04 11:46:23;;;;;;;13.00;8.50;;;4.50;99.90;;;;;;5044257;28;20181;-84
2022/12/04 11:48:49;;;;;;;13.30;8.20;;;4.40;99.90;;;;;;5044123;28;20274;-83
2022/12/04 11:51:21;;;;;;;13.07;8.20;;;4.00;99.90;;;;;;5042805;28;20200;-84
2022/12/04 11:53:58;;;;;;;12.47;7.53;;;3.70;99.90;;;;;;5042204;28;20181;-83
2022/12/04 11:56:31;;;;;;;13.17;8.13;;;3.50;99.90;;;;;;5045151;28;20199;-83
2022/12/04 11:59:19;;;;;;;11.87;8.60;;;3.60;99.90;;;;;;5043139;28;20232;-83
2022/12/04 12:01:56;;;;;;;14.17;8.90;;;3.80;99.90;;;;;;5059748;28;20180;-83
2022/12/04 12:04:52;;;;;;;14.13;8.37;;;3.80;99.90;;;;;;5041438;28;20192;-83
2022/12/04 12:07:35;;;;;;;10.70;7.53;;;3.80;99.90;;;;;;5040738;28;20264;-83
2022/12/04 12:10:13;;;;;;;13.60;8.40;;;3.80;99.90;;;;;;5039851;28;20219;-83
2022/12/04 12:13:01;;;;;;;14.07;8.47;;;3.80;99.90;;;;;;5040834;28;20213;-83
2022/12/04 12:15:54;;;;;;;14.27;8.53;;;3.70;99.90;;;;;;5040880;28;20209;-83
2022/12/04 12:18:31;;;;;;;14.50;8.23;;;3.70;99.90;;;;;;5041546;28;20181;-82
2022/12/04 12:21:18;;;;;;;13.30;8.50;;;3.70;99.90;;;;;;5061605;28;20200;-83
2022/12/04 12:24:06;;;;;;;12.77;7.83;;;3.50;99.90;;;;;;5040714;28;20229;-83
2022/12/04 12:26:53;;;;;;;14.73;8.50;;;3.40;99.90;;;;;;5040006;28;20717;-83
2022/12/04 12:29:50;;;;;;;14.47;8.60;;;3.30;99.90;;;;;;5041830;28;20205;-83
2022/12/04 12:32:22;;;;;;;13.73;8.40;;;3.30;99.90;;;;;;5039539;28;20199;-82
2022/12/04 12:34:48;;;;;;;13.23;8.00;;;3.20;99.90;;;;;;5040346;28;20172;-82
2022/12/04 12:37:42;;;;;;;13.33;8.50;;;3.10;99.90;;;;;;5040078;28;20196;-82
2022/12/04 12:40:22;;;;;;;13.03;8.57;;;3.00;99.90;;;;;;5039119;28;20207;-83
2022/12/04 12:42:54;;;;;;;14.67;9.10;;;3.00;99.90;;;;;;5039216;28;20631;-83
2022/12/04 12:45:32;;;;;;;14.27;8.33;;;2.90;99.90;;;;;;5056959;28;20176;-82
2022/12/04 12:48:08;;;;;;;13.83;8.80;;;2.90;99.90;;;;;;5057472;28;20197;-82
2022/12/04 12:50:48;;;;;;;12.73;8.20;;;2.90;99.90;;;;;;5078965;22;20225;-83
2022/12/04 12:53:18;;;;;;;16.20;9.40;;;2.90;99.90;;;;;;5061317;28;20216;-84
2022/12/04 12:55:57;;;;;;;32.97;18.17;;;3.00;99.90;;;;;;5091112;28;20243;-83
2022/12/04 12:58:54;;;;;;;21.13;12.40;;;3.20;99.90;;;;;;5094227;28;20169;-83
2022/12/04 13:01:29;;;;;;;12.87;7.80;;;3.30;99.90;;;;;;5094424;28;20189;-84
2022/12/04 13:04:29;;;;;;;17.10;10.80;;;3.10;99.90;;;;;;5069365;28;20176;-85
2022/12/04 13:07:17;;;;;;;15.33;9.47;;;3.00;99.90;;;;;;5067190;28;20174;-83
2022/12/04 13:10:06;;;;;;;13.43;7.87;;;2.80;99.90;;;;;;5066425;28;20617;-84
2022/12/04 13:13:06;;;;;;;14.83;9.40;;;2.80;99.90;;;;;;5055812;28;20175;-84
2022/12/04 13:15:45;;;;;;;25.43;18.33;;;2.70;99.90;;;;;;5003050;28;20187;-84
2022/12/04 13:18:27;;;;;;;17.20;11.00;;;2.60;99.90;;;;;;5056154;28;20660;-83
2022/12/04 13:21:00;;;;;;;19.50;14.33;;;2.60;99.90;;;;;;5073833;28;20194;-83
2022/12/04 13:23:47;;;;;;;17.70;12.37;;;2.60;99.90;;;;;;5055788;28;20174;-84